Time;durP1;ratioP1;P1;durP2;ratioP2;P2;SDS_P1;SDS_P2;PMS_P1;PMS_P2;Temp;Humidity;BMP_temperature;BMP_pressure;BME280_temperature;BME280_humidity;BME280_pressure;Samples;Min_cycle;Max_cycle;Signal;HPM_P1;HPM_P2
2022/11/13 00:01:45;;;;;;;14.90;13.57;;;;;;;4.23;100.00;97710.41;4975917;28;20215;-68
2022/11/13 00:04:11;;;;;;;15.33;13.93;;;;;;;4.27;100.00;97716.06;4994485;28;20218;-70
2022/11/13 00:06:37;;;;;;;14.60;13.27;;;;;;;4.25;100.00;97711.03;4993435;28;20194;-68
2022/11/13 00:09:02;;;;;;;12.83;11.73;;;;;;;4.17;100.00;97704.09;4967555;28;20201;-68
2022/11/13 00:11:28;;;;;;;13.50;12.30;;;;;;;4.14;100.00;97696.63;4988879;28;20271;-69
2022/11/13 00:13:54;;;;;;;13.37;11.90;;;;;;;4.09;100.00;97698.91;4994673;28;20270;-68
2022/11/13 00:16:20;;;;;;;12.20;11.10;;;;;;;4.13;100.00;97691.59;4993548;28;20193;-68
2022/11/13 00:18:47;;;;;;;12.07;10.97;;;;;;;4.23;100.00;97692.25;4986636;28;20542;-70
2022/11/13 00:21:19;;;;;;;13.17;12.00;;;;;;;4.15;100.00;97693.06;4985994;28;20206;-68
2022/11/13 00:23:45;;;;;;;12.67;11.57;;;;;;;4.23;100.00;97686.25;4994727;28;20180;-67
2022/11/13 00:26:11;;;;;;;13.10;11.90;;;;;;;4.24;100.00;97682.66;4994585;28;20176;-67
2022/11/13 00:28:37;;;;;;;12.33;11.23;;;;;;;4.31;100.00;97689.63;4994000;28;20224;-67
2022/11/13 00:31:04;;;;;;;11.80;10.80;;;;;;;4.32;100.00;97686.06;4992325;28;20657;-67
2022/11/13 00:33:30;;;;;;;12.47;11.37;;;;;;;4.30;100.00;97684.59;4992851;28;20187;-68
2022/11/13 00:36:03;;;;;;;12.87;11.77;;;;;;;4.07;100.00;97680.06;4994586;28;20184;-67
2022/11/13 00:38:28;;;;;;;12.80;11.60;;;;;;;4.13;100.00;97679.44;4993714;28;20192;-68
2022/11/13 00:40:54;;;;;;;13.27;11.87;;;;;;;4.19;100.00;97683.97;4984649;28;20618;-68
2022/11/13 00:43:19;;;;;;;12.43;11.33;;;;;;;4.19;100.00;97668.41;4982741;28;20224;-68
2022/11/13 00:45:44;;;;;;;12.63;11.43;;;;;;;4.29;100.00;97670.81;4992717;28;20192;-68
2022/11/13 00:48:10;;;;;;;11.83;10.17;;;;;;;4.28;100.00;97663.22;4994069;28;20188;-68
2022/11/13 00:50:35;;;;;;;12.23;11.13;;;;;;;4.08;100.00;97665.31;4988765;28;20292;-67
2022/11/13 00:53:00;;;;;;;12.60;11.30;;;;;;;4.15;100.00;97661.91;4973908;28;20268;-68
2022/11/13 00:55:26;;;;;;;12.93;11.73;;;;;;;3.99;100.00;97664.53;4985695;28;20298;-68
2022/11/13 00:57:51;;;;;;;12.97;11.77;;;;;;;3.95;100.00;97660.66;4984778;28;20559;-68
2022/11/13 01:00:16;;;;;;;11.50;10.40;;;;;;;4.00;100.00;97658.38;4988990;28;20227;-68
2022/11/13 01:02:42;;;;;;;12.27;11.17;;;;;;;4.00;100.00;97655.78;4988699;28;20187;-68
2022/11/13 01:05:07;;;;;;;13.60;12.30;;;;;;;3.93;100.00;97652.22;4993236;28;20191;-68
2022/11/13 01:07:35;;;;;;;12.33;11.23;;;;;;;3.86;100.00;97645.25;4983023;28;20190;-68
2022/11/13 01:10:01;;;;;;;13.33;12.07;;;;;;;3.81;100.00;97645.75;4979434;28;20614;-69
2022/11/13 01:12:26;;;;;;;13.77;12.47;;;;;;;3.70;100.00;97646.88;4977105;28;20199;-68
2022/11/13 01:14:51;;;;;;;12.77;11.50;;;;;;;3.72;100.00;97644.94;4993830;28;20192;-71
2022/11/13 01:17:17;;;;;;;12.47;11.17;;;;;;;3.76;100.00;97635.06;4990519;28;20645;-68
2022/11/13 01:19:42;;;;;;;13.23;11.97;;;;;;;3.73;100.00;97643.16;4976173;28;20228;-68
2022/11/13 01:22:07;;;;;;;13.30;12.10;;;;;;;3.78;100.00;97635.72;4974887;28;20606;-67
2022/11/13 01:24:33;;;;;;;13.13;11.93;;;;;;;3.83;100.00;97637.81;4981644;28;20275;-69
2022/11/13 01:26:58;;;;;;;15.20;13.70;;;;;;;3.85;100.00;97630.66;4973938;28;20675;-68
2022/11/13 01:29:23;;;;;;;24.30;21.70;;;;;;;3.87;100.00;97632.13;4992738;28;20683;-66
2022/11/13 01:31:49;;;;;;;24.43;20.77;;;;;;;3.85;100.00;97625.47;4975714;28;20529;-69
2022/11/13 01:34:14;;;;;;;20.23;18.13;;;;;;;3.86;100.00;97620.13;4990559;28;20215;-69
2022/11/13 01:36:39;;;;;;;18.57;16.77;;;;;;;3.97;100.00;97621.56;4979393;28;20207;-68
2022/11/13 01:39:05;;;;;;;15.60;14.10;;;;;;;3.91;100.00;97611.84;4992973;28;20195;-69
2022/11/13 01:41:32;;;;;;;16.47;14.80;;;;;;;3.86;100.00;97607.16;4976483;28;20534;-68
2022/11/13 01:43:59;;;;;;;15.30;13.87;;;;;;;3.84;100.00;97606.53;4989100;28;20271;-68
2022/11/13 01:46:37;;;;;;;15.50;14.00;;;;;;;3.88;100.00;97607.81;4989091;28;20258;-68
2022/11/13 01:49:08;;;;;;;14.70;13.27;;;;;;;3.91;100.00;97599.69;4974067;28;20190;-68
2022/11/13 01:51:35;;;;;;;15.80;14.10;;;;;;;3.92;100.00;97603.91;4974621;28;20662;-68
2022/11/13 01:54:07;;;;;;;14.30;12.87;;;;;;;3.87;100.00;97603.59;4956547;28;20528;-68
2022/11/13 01:56:33;;;;;;;14.43;12.93;;;;;;;3.90;100.00;97600.66;4981004;28;20188;-69
2022/11/13 01:59:15;;;;;;;14.97;13.47;;;;;;;3.88;100.00;97592.25;4984480;28;20200;-68
2022/11/13 02:01:41;;;;;;;15.90;14.27;;;;;;;3.83;100.00;97584.16;4992843;28;20238;-68
2022/11/13 02:04:06;;;;;;;13.83;12.53;;;;;;;3.66;100.00;97585.97;4995570;28;20223;-68
2022/11/13 02:07:03;;;;;;;14.33;12.93;;;;;;;3.68;100.00;97581.41;4995135;28;20645;-67
2022/11/13 02:09:56;;;;;;;13.73;12.43;;;;;;;3.73;100.00;97573.16;4973212;28;20197;-66
2022/11/13 02:12:35;;;;;;;14.27;12.87;;;;;;;3.63;100.00;97573.31;4979665;28;20605;-66
2022/11/13 02:15:04;;;;;;;15.13;13.33;;;;;;;3.64;100.00;97569.75;4996504;28;20633;-66
2022/11/13 02:18:00;;;;;;;14.47;12.97;;;;;;;3.66;100.00;97570.41;4995346;28;20535;-66
2022/11/13 02:20:44;;;;;;;15.63;14.10;;;;;;;3.60;100.00;97573.66;4985744;28;20275;-66
2022/11/13 02:23:49;;;;;;;15.37;13.87;;;;;;;3.60;100.00;97562.47;4971595;28;20168;-66
2022/11/13 02:26:18;;;;;;;18.50;14.23;;;;;;;3.62;100.00;97563.13;4995736;28;20190;-67
2022/11/13 02:28:44;;;;;;;14.90;13.40;;;;;;;3.62;100.00;97555.38;4980042;28;20728;-66
2022/11/13 02:31:11;;;;;;;15.83;14.23;;;;;;;3.58;100.00;97552.28;4987645;28;20184;-67
2022/11/13 02:33:37;;;;;;;14.40;12.93;;;;;;;3.58;100.00;97548.88;4984310;28;20188;-68
2022/11/13 02:36:04;;;;;;;16.93;15.03;;;;;;;3.49;100.00;97542.91;4960824;28;20645;-67
2022/11/13 02:38:32;;;;;;;17.10;15.23;;;;;;;3.42;100.00;97541.91;4977159;28;21777;-68
2022/11/13 02:40:57;;;;;;;14.90;13.30;;;;;;;3.40;100.00;97546.44;4981437;28;21016;-67
2022/11/13 02:43:22;;;;;;;15.47;13.87;;;;;;;3.45;100.00;97543.41;4971578;28;20183;-67
2022/11/13 02:45:48;;;;;;;14.97;12.83;;;;;;;3.37;100.00;97539.00;4994854;28;20184;-68
2022/11/13 02:48:13;;;;;;;15.50;13.90;;;;;;;3.29;100.00;97544.19;4992299;28;20188;-67
2022/11/13 02:50:39;;;;;;;14.77;13.37;;;;;;;3.22;100.00;97536.28;4995187;28;20188;-68
2022/11/13 02:53:05;;;;;;;14.90;13.37;;;;;;;3.25;100.00;97540.31;4992910;28;20195;-69
2022/11/13 02:55:30;;;;;;;13.53;12.13;;;;;;;3.30;100.00;97530.25;4995734;28;20206;-68
2022/11/13 02:57:56;;;;;;;13.57;12.27;;;;;;;3.30;100.00;97531.06;4981506;28;20634;-67
2022/11/13 03:00:21;;;;;;;13.80;12.40;;;;;;;3.38;100.00;97526.88;4982994;28;20248;-67
2022/11/13 03:02:46;;;;;;;14.63;13.23;;;;;;;3.31;100.00;97524.94;4995137;28;20258;-67
2022/11/13 03:05:12;;;;;;;14.00;12.60;;;;;;;3.39;100.00;97524.13;4963774;28;20240;-67
2022/11/13 03:07:37;;;;;;;14.77;13.07;;;;;;;3.41;100.00;97522.16;4982024;28;20203;-67
2022/11/13 03:10:03;;;;;;;14.00;12.63;;;;;;;3.32;100.00;97520.56;4977599;28;20196;-67
2022/11/13 03:12:28;;;;;;;14.83;13.37;;;;;;;3.29;100.00;97521.69;4976601;28;20232;-67
2022/11/13 03:14:53;;;;;;;14.37;12.97;;;;;;;3.43;100.00;97520.22;4970375;28;20231;-68
2022/11/13 03:17:19;;;;;;;13.97;12.67;;;;;;;3.31;100.00;97522.34;4961664;28;20184;-67
2022/11/13 03:19:44;;;;;;;14.77;13.37;;;;;;;3.22;100.00;97518.16;4992343;28;20259;-67
2022/11/13 03:22:09;;;;;;;14.50;13.20;;;;;;;3.27;100.00;97515.06;4988225;28;20234;-66
2022/11/13 03:24:35;;;;;;;15.67;14.27;;;;;;;3.21;100.00;97513.94;4988942;28;20610;-69
2022/11/13 03:27:00;;;;;;;14.37;13.07;;;;;;;3.34;100.00;97519.41;4958401;28;20195;-67
2022/11/13 03:29:25;;;;;;;14.57;13.27;;;;;;;3.35;100.00;97515.03;4977047;28;20223;-67
2022/11/13 03:31:50;;;;;;;14.07;12.87;;;;;;;3.22;100.00;97505.19;4983977;28;20193;-67
2022/11/13 03:34:16;;;;;;;13.97;12.57;;;;;;;3.33;100.00;97515.22;4987610;28;20242;-66
2022/11/13 03:36:41;;;;;;;13.90;12.57;;;;;;;3.24;100.00;97513.59;4994926;28;20257;-67
2022/11/13 03:39:07;;;;;;;14.90;13.40;;;;;;;3.16;100.00;97511.00;4990585;28;20192;-67
2022/11/13 03:41:32;;;;;;;14.87;13.27;;;;;;;3.19;100.00;97512.47;4979011;28;20308;-68
2022/11/13 03:43:57;;;;;;;14.23;12.93;;;;;;;3.15;100.00;97514.56;4981176;28;20199;-68
2022/11/13 03:46:23;;;;;;;14.60;13.30;;;;;;;3.23;100.00;97513.78;4992859;28;20192;-67
2022/11/13 03:48:48;;;;;;;14.27;12.87;;;;;;;3.18;100.00;97505.66;4975875;28;20530;-67
2022/11/13 03:51:14;;;;;;;14.20;12.90;;;;;;;3.03;100.00;97507.28;4975604;28;20677;-67
2022/11/13 03:53:39;;;;;;;14.53;13.13;;;;;;;2.98;100.00;97510.34;4989041;28;20242;-68
2022/11/13 03:56:05;;;;;;;15.47;13.87;;;;;;;3.05;100.00;97510.53;4994954;28;20192;-67
2022/11/13 03:58:30;;;;;;;13.30;12.00;;;;;;;2.94;100.00;97506.47;4976304;28;20319;-68
2022/11/13 04:00:56;;;;;;;14.17;12.77;;;;;;;2.83;100.00;97507.59;4958139;28;20213;-67
2022/11/13 04:03:21;;;;;;;14.63;13.20;;;;;;;2.67;100.00;97507.59;4977001;28;20184;-67
2022/11/13 04:05:49;;;;;;;14.63;13.27;;;;;;;2.59;100.00;97506.75;4975355;28;20203;-67
2022/11/13 04:08:15;;;;;;;15.43;13.93;;;;;;;2.76;100.00;97503.22;4973294;28;20188;-67
2022/11/13 04:10:41;;;;;;;14.57;13.10;;;;;;;2.61;100.00;97497.06;4988290;28;20262;-67
2022/11/13 04:13:06;;;;;;;15.10;13.60;;;;;;;2.59;100.00;97494.63;4975375;28;20580;-67
2022/11/13 04:15:32;;;;;;;14.87;13.40;;;;;;;2.54;100.00;97501.22;4976341;28;20672;-67
2022/11/13 04:17:57;;;;;;;15.03;13.57;;;;;;;2.70;100.00;97490.91;4987637;28;20187;-69
2022/11/13 04:20:23;;;;;;;15.47;13.93;;;;;;;2.53;100.00;97495.25;4994390;28;20216;-68
2022/11/13 04:22:48;;;;;;;15.33;13.73;;;;;;;2.41;100.00;97488.75;4994231;28;20716;-66
2022/11/13 04:25:14;;;;;;;14.53;13.17;;;;;;;2.41;100.00;97486.16;4970807;28;20267;-67
2022/11/13 04:27:39;;;;;;;15.43;13.83;;;;;;;2.47;100.00;97481.16;4974724;28;20216;-67
2022/11/13 04:30:05;;;;;;;15.23;13.73;;;;;;;2.53;100.00;97471.16;4975101;28;20522;-67
2022/11/13 04:32:31;;;;;;;15.07;13.57;;;;;;;2.45;100.00;97469.38;4974710;28;20180;-68
2022/11/13 04:34:57;;;;;;;14.33;12.93;;;;;;;2.39;100.00;97472.59;4976011;28;20678;-66
2022/11/13 04:37:22;;;;;;;14.37;12.87;;;;;;;2.40;100.00;97461.25;4975064;28;20280;-67
2022/11/13 04:39:47;;;;;;;15.07;13.27;;;;;;;2.42;100.00;97460.13;4961310;28;20247;-67
2022/11/13 04:44:56;;;;;;;14.73;12.93;;;;;;;2.25;100.00;97461.06;4990338;28;20183;-67
2022/11/13 04:47:22;;;;;;;15.20;13.70;;;;;;;2.26;100.00;97460.09;4993682;28;20188;-67
2022/11/13 04:49:47;;;;;;;14.77;13.23;;;;;;;2.33;100.00;97465.47;4993704;28;20187;-66
2022/11/13 04:52:12;;;;;;;17.13;13.60;;;;;;;2.07;100.00;97456.00;4992602;28;20196;-66
2022/11/13 04:54:38;;;;;;;23.33;15.37;;;;;;;2.20;100.00;97452.16;4981064;28;20188;-66
2022/11/13 04:57:03;;;;;;;17.53;14.83;;;;;;;2.18;100.00;97459.25;4981432;28;20192;-67
2022/11/13 04:59:28;;;;;;;16.13;14.43;;;;;;;1.92;100.00;97449.81;4993958;28;20234;-66
2022/11/13 05:01:54;;;;;;;16.43;13.17;;;;;;;1.64;100.00;97445.81;4984034;28;20292;-67
2022/11/13 05:04:20;;;;;;;15.43;13.87;;;;;;;1.58;100.00;97456.75;4992259;28;20196;-66
2022/11/13 05:06:46;;;;;;;37.33;14.17;;;;;;;1.32;100.00;97443.88;4979832;28;20660;-66
2022/11/13 05:09:11;;;;;;;49.80;14.40;;;;;;;1.36;100.00;97441.78;4974155;28;20192;-66
2022/11/13 05:11:37;;;;;;;64.73;14.97;;;;;;;1.06;100.00;97437.91;4979374;28;20271;-66
2022/11/13 05:14:03;;;;;;;88.47;14.37;;;;;;;1.16;100.00;97430.88;4974013;28;20180;-66
2022/11/13 05:16:29;;;;;;;88.30;16.23;;;;;;;1.11;100.00;97433.91;4956951;28;20192;-67
2022/11/13 05:18:57;;;;;;;38.03;14.47;;;;;;;0.93;100.00;97433.13;4989464;28;20181;-67
2022/11/13 05:21:22;;;;;;;76.30;16.43;;;;;;;1.04;100.00;97419.97;4973990;28;20239;-66
2022/11/13 05:23:47;;;;;;;100.27;17.57;;;;;;;1.07;100.00;97424.81;4974259;28;20236;-66
2022/11/13 05:26:14;;;;;;;38.30;16.13;;;;;;;0.82;100.00;97428.22;4987241;28;20199;-66
2022/11/13 05:28:39;;;;;;;44.40;15.87;;;;;;;0.97;100.00;97431.88;4991803;28;20239;-66
2022/11/13 05:31:13;;;;;;;58.97;16.30;;;;;;;1.02;100.00;97432.22;4973646;28;20188;-67
2022/11/13 05:33:40;;;;;;;32.90;17.03;;;;;;;1.04;100.00;97421.75;4974090;28;20180;-66
2022/11/13 05:36:11;;;;;;;41.17;15.97;;;;;;;1.05;100.00;97416.44;4986120;28;20184;-66
2022/11/13 05:38:37;;;;;;;42.67;17.43;;;;;;;1.06;100.00;97415.47;4986525;28;20180;-66
2022/11/13 05:41:11;;;;;;;52.90;15.67;;;;;;;1.04;100.00;97412.25;4992483;28;20269;-66
2022/11/13 05:43:38;;;;;;;49.10;17.17;;;;;;;1.02;100.00;97416.72;4993042;28;20168;-66
2022/11/13 05:46:24;;;;;;;55.73;16.37;;;;;;;0.93;100.00;97412.47;4993071;28;20188;-67
2022/11/13 05:48:55;;;;;;;69.97;18.60;;;;;;;0.98;100.00;97420.59;4988197;28;20165;-66
2022/11/13 05:51:24;;;;;;;125.17;18.40;;;;;;;0.94;100.00;97413.31;4973942;28;20192;-66
2022/11/13 05:53:51;;;;;;;81.87;18.37;;;;;;;0.81;100.00;97426.59;4990411;28;20548;-67
2022/11/13 05:56:21;;;;;;;70.87;18.03;;;;;;;0.86;100.00;97426.94;4970223;28;20592;-66
2022/11/13 05:58:47;;;;;;;67.17;18.77;;;;;;;0.95;100.00;97418.28;4973771;28;20204;-66
2022/11/13 06:01:27;;;;;;;31.10;16.67;;;;;;;1.12;100.00;97422.59;4974870;28;20299;-66
2022/11/13 06:03:57;;;;;;;74.60;18.33;;;;;;;1.03;100.00;97423.50;4981921;28;20620;-66
2022/11/13 06:06:24;;;;;;;105.27;18.73;;;;;;;1.21;100.00;97418.31;4963776;28;20358;-67
2022/11/13 06:08:51;;;;;;;80.87;19.03;;;;;;;1.23;100.00;97424.13;4974386;28;20287;-66
2022/11/13 06:11:19;;;;;;;196.80;21.27;;;;;;;1.03;100.00;97425.28;4973662;28;20199;-66
2022/11/13 06:13:46;;;;;;;142.50;20.90;;;;;;;1.11;100.00;97425.34;4980223;28;20207;-66
2022/11/13 06:16:14;;;;;;;251.23;23.70;;;;;;;1.15;100.00;97421.50;4992534;28;20532;-66
2022/11/13 06:18:41;;;;;;;294.20;26.30;;;;;;;1.10;100.00;97426.31;4989002;28;20196;-66
2022/11/13 06:21:09;;;;;;;197.77;21.47;;;;;;;1.12;100.00;97427.75;4955934;28;20207;-66
2022/11/13 06:23:36;;;;;;;211.83;23.73;;;;;;;1.03;100.00;97422.72;4973664;28;20187;-66
2022/11/13 06:26:12;;;;;;;156.47;22.27;;;;;;;1.10;100.00;97421.16;4981490;28;20204;-66
2022/11/13 06:28:37;;;;;;;178.90;27.07;;;;;;;1.11;100.00;97417.59;4989086;28;20693;-65
2022/11/13 06:31:15;;;;;;;60.40;18.50;;;;;;;0.99;100.00;97411.06;4973202;28;20236;-68
2022/11/13 06:33:41;;;;;;;185.93;24.70;;;;;;;1.17;100.00;97406.69;4958993;28;20260;-66
2022/11/13 06:36:15;;;;;;;212.47;21.83;;;;;;;1.22;100.00;97407.84;4973104;28;20231;-67
2022/11/13 06:38:41;;;;;;;194.60;21.90;;;;;;;1.24;100.00;97403.31;4975704;28;20172;-67
2022/11/13 06:41:08;;;;;;;113.33;19.93;;;;;;;1.13;100.00;97405.34;4992196;28;20214;-67
2022/11/13 06:43:34;;;;;;;140.63;22.30;;;;;;;1.21;100.00;97401.06;4992586;28;20200;-67
2022/11/13 06:46:04;;;;;;;129.73;22.57;;;;;;;1.29;100.00;97407.19;4979953;28;20235;-66
2022/11/13 06:48:29;;;;;;;69.27;19.50;;;;;;;1.22;100.00;97401.88;4974250;28;20196;-67
2022/11/13 06:50:54;;;;;;;81.57;20.20;;;;;;;1.16;100.00;97399.88;4994228;28;20596;-67
2022/11/13 06:53:20;;;;;;;114.33;19.67;;;;;;;1.33;100.00;97386.13;4995979;28;20238;-67
2022/11/13 06:55:47;;;;;;;81.20;18.47;;;;;;;1.03;100.00;97387.38;4993117;28;20319;-67
2022/11/13 06:58:13;;;;;;;30.00;18.13;;;;;;;1.20;100.00;97386.53;4977202;28;20204;-67
2022/11/13 07:00:39;;;;;;;57.20;18.30;;;;;;;1.26;100.00;97387.69;4994192;28;20204;-67
2022/11/13 07:03:05;;;;;;;106.63;18.97;;;;;;;1.29;100.00;97386.53;4976548;28;20192;-66
2022/11/13 07:05:30;;;;;;;45.00;17.60;;;;;;;1.09;100.00;97385.97;4976841;28;20188;-66
2022/11/13 07:07:55;;;;;;;40.37;17.67;;;;;;;1.18;100.00;97380.69;4977071;28;20302;-66
2022/11/13 07:10:21;;;;;;;38.13;17.40;;;;;;;1.16;100.00;97382.63;4994852;28;20203;-66
2022/11/13 07:12:46;;;;;;;37.63;18.37;;;;;;;1.06;100.00;97379.31;4977052;28;20271;-66
2022/11/13 07:15:11;;;;;;;76.17;20.37;;;;;;;0.99;100.00;97375.75;4996149;28;20192;-66
2022/11/13 07:17:37;;;;;;;45.43;18.17;;;;;;;1.24;100.00;97372.34;4995627;28;20191;-66
2022/11/13 07:20:02;;;;;;;70.03;17.80;;;;;;;1.28;100.00;97372.03;4980282;28;20212;-66
2022/11/13 07:22:29;;;;;;;29.33;18.57;;;;;;;1.30;100.00;97365.75;4975973;28;20192;-66
2022/11/13 07:24:55;;;;;;;65.13;19.17;;;;;;;1.33;100.00;97374.97;4977217;28;20184;-67
2022/11/13 07:27:20;;;;;;;112.23;19.07;;;;;;;1.37;100.00;97373.69;4981222;28;20577;-66
2022/11/13 07:29:45;;;;;;;61.13;17.77;;;;;;;1.37;100.00;97364.19;4978010;28;20212;-67
2022/11/13 07:32:11;;;;;;;30.67;16.83;;;;;;;1.57;100.00;97352.63;4976330;28;20555;-66
2022/11/13 07:34:36;;;;;;;46.30;17.80;;;;;;;1.76;100.00;97354.16;4978027;28;20181;-65
2022/11/13 07:37:01;;;;;;;20.40;17.83;;;;;;;1.90;100.00;97352.72;4972064;28;20184;-66
2022/11/13 07:39:27;;;;;;;45.73;18.53;;;;;;;2.05;100.00;97356.31;4958836;28;20195;-67
2022/11/13 07:41:52;;;;;;;70.07;20.00;;;;;;;2.13;100.00;97358.09;4976018;28;20275;-66
2022/11/13 07:44:17;;;;;;;87.53;19.57;;;;;;;2.02;100.00;97354.03;4979807;28;20245;-66
2022/11/13 07:46:43;;;;;;;27.27;16.40;;;;;;;2.11;100.00;97363.44;4988052;28;20540;-66
2022/11/13 07:49:08;;;;;;;83.90;18.00;;;;;;;2.09;100.00;97358.41;4975713;28;20196;-67
2022/11/13 07:51:33;;;;;;;47.40;17.70;;;;;;;2.03;100.00;97353.88;4958046;28;20224;-67
2022/11/13 07:53:59;;;;;;;48.30;15.37;;;;;;;2.06;100.00;97345.78;4976755;28;20247;-68
2022/11/13 07:56:24;;;;;;;21.43;15.37;;;;;;;2.08;100.00;97343.06;4985512;28;20195;-67
2022/11/13 07:58:50;;;;;;;30.93;17.23;;;;;;;2.21;100.00;97340.00;4979475;28;20185;-67
2022/11/13 08:01:15;;;;;;;30.33;16.87;;;;;;;2.22;100.00;97331.28;4975393;28;20204;-67
2022/11/13 08:03:40;;;;;;;93.70;18.50;;;;;;;2.03;100.00;97333.19;4958319;28;20588;-66
2022/11/13 08:06:07;;;;;;;27.20;15.90;;;;;;;2.49;100.00;97331.78;4977121;28;20280;-69
2022/11/13 08:08:33;;;;;;;71.13;18.27;;;;;;;2.74;100.00;97340.31;4989605;28;20184;-68
2022/11/13 08:11:02;;;;;;;24.93;17.03;;;;;;;2.74;100.00;97329.16;4975321;28;20192;-68
2022/11/13 08:13:28;;;;;;;145.37;18.80;;;;;;;2.75;100.00;97331.59;4975345;28;20289;-67
2022/11/13 08:15:53;;;;;;;54.30;17.23;;;;;;;2.72;100.00;97331.13;4975292;28;20680;-68
2022/11/13 08:18:18;;;;;;;20.27;16.40;;;;;;;2.78;100.00;97327.88;4990505;28;20181;-67
2022/11/13 08:20:44;;;;;;;24.53;19.13;;;;;;;3.12;100.00;97323.25;4975356;28;20208;-67
2022/11/13 08:23:09;;;;;;;26.33;16.23;;;;;;;3.04;100.00;97318.09;4974987;28;20317;-67
2022/11/13 08:25:34;;;;;;;15.87;14.30;;;;;;;3.34;100.00;97312.16;4975170;28;20185;-67
2022/11/13 08:28:00;;;;;;;14.70;13.07;;;;;;;3.58;100.00;97311.25;4990700;28;20232;-68
2022/11/13 08:30:27;;;;;;;16.63;12.67;;;;;;;3.00;100.00;97311.66;4991976;28;20183;-67
2022/11/13 08:32:53;;;;;;;14.13;12.83;;;;;;;3.52;100.00;97301.56;4969046;28;20311;-68
2022/11/13 08:35:19;;;;;;;14.53;13.23;;;;;;;3.76;100.00;97306.63;4974914;28;20196;-67
2022/11/13 08:37:44;;;;;;;39.60;13.20;;;;;;;3.07;100.00;97304.81;4974798;28;20180;-67
2022/11/13 08:40:10;;;;;;;28.60;11.97;;;;;;;3.24;100.00;97301.19;4959975;28;20545;-69
2022/11/13 08:42:35;;;;;;;56.50;12.90;;;;;;;2.71;100.00;97304.44;4970809;28;20685;-68
2022/11/13 08:45:01;;;;;;;14.20;12.07;;;;;;;2.95;100.00;97298.41;4965331;28;20185;-67
2022/11/13 08:47:28;;;;;;;13.23;11.77;;;;;;;2.53;100.00;97303.78;4986400;28;20262;-67
2022/11/13 08:49:54;;;;;;;19.30;11.73;;;;;;;2.45;100.00;97296.06;4962128;28;20192;-67
2022/11/13 08:52:20;;;;;;;13.40;12.20;;;;;;;3.04;100.00;97289.63;4974781;28;20299;-69
2022/11/13 08:54:46;;;;;;;13.10;11.93;;;;;;;3.21;100.00;97293.78;4957685;28;20204;-69
2022/11/13 08:57:11;;;;;;;15.37;14.07;;;;;;;3.32;100.00;97292.59;4976466;28;20188;-69
2022/11/13 08:59:36;;;;;;;15.30;13.83;;;;;;;3.52;100.00;97295.56;4993993;28;20180;-69
2022/11/13 09:02:02;;;;;;;128.30;18.00;;;;;;;3.65;100.00;97288.06;4977636;28;20192;-70
2022/11/13 09:04:27;;;;;;;51.20;15.37;;;;;;;3.80;100.00;97294.13;4974404;28;20181;-69
2022/11/13 09:06:53;;;;;;;101.23;16.80;;;;;;;3.58;100.00;97293.09;4964246;28;20256;-69
2022/11/13 09:09:20;;;;;;;140.53;16.73;;;;;;;3.51;100.00;97278.44;4974545;28;20649;-67
2022/11/13 09:11:46;;;;;;;18.23;13.80;;;;;;;3.74;100.00;97280.06;4982717;28;20202;-67
2022/11/13 09:14:11;;;;;;;23.77;15.30;;;;;;;3.95;100.00;97297.59;4975008;28;20211;-67
2022/11/13 09:16:36;;;;;;;19.23;13.87;;;;;;;3.91;100.00;97292.91;4976002;28;20628;-66
2022/11/13 09:19:02;;;;;;;33.03;15.63;;;;;;;3.89;100.00;97289.72;4991273;28;20230;-67
2022/11/13 09:21:28;;;;;;;17.97;15.77;;;;;;;4.32;100.00;97290.84;4984548;28;20208;-65
2022/11/13 09:23:54;;;;;;;14.47;12.93;;;;;;;4.40;100.00;97293.38;4973991;28;20203;-65
2022/11/13 09:26:19;;;;;;;12.97;11.77;;;;;;;4.14;100.00;97296.31;4975490;28;20629;-67
2022/11/13 09:28:45;;;;;;;13.07;11.87;;;;;;;4.36;100.00;97282.53;4971766;28;20379;-66
2022/11/13 09:31:10;;;;;;;13.87;12.53;;;;;;;4.01;100.00;97283.94;4974466;28;20216;-67
2022/11/13 09:33:35;;;;;;;13.97;12.77;;;;;;;4.13;100.00;97284.31;4972701;28;20711;-67
2022/11/13 09:36:01;;;;;;;14.37;13.10;;;;;;;4.49;100.00;97277.56;4971152;28;20276;-68
2022/11/13 09:38:30;;;;;;;19.63;14.83;;;;;;;3.99;100.00;97280.72;4973119;28;20381;-68
2022/11/13 09:41:10;;;;;;;13.97;12.67;;;;;;;4.34;100.00;97273.31;4992053;28;20211;-68
2022/11/13 09:43:49;;;;;;;13.87;12.67;;;;;;;4.24;100.00;97268.34;4992576;28;20283;-68
2022/11/13 09:46:33;;;;;;;13.30;12.10;;;;;;;4.49;100.00;97277.56;4978747;28;20738;-68
2022/11/13 09:49:02;;;;;;;13.87;12.57;;;;;;;4.60;100.00;97277.13;4977907;28;20271;-67
2022/11/13 09:51:31;;;;;;;13.23;11.83;;;;;;;4.50;100.00;97276.59;4993089;28;20187;-68
2022/11/13 09:54:01;;;;;;;12.67;11.57;;;;;;;4.92;100.00;97268.19;4992932;28;20275;-67
2022/11/13 09:56:31;;;;;;;12.00;10.90;;;;;;;5.05;100.00;97274.56;4977128;28;20653;-67
2022/11/13 09:59:18;;;;;;;14.10;12.80;;;;;;;4.88;100.00;97272.16;4974137;28;20196;-68
2022/11/13 10:02:01;;;;;;;16.67;13.03;;;;;;;4.52;100.00;97279.78;4974014;28;20196;-69
2022/11/13 10:04:42;;;;;;;15.97;14.37;;;;;;;4.30;100.00;97269.44;4974137;28;20259;-68
2022/11/13 10:07:21;;;;;;;14.53;13.13;;;;;;;4.27;100.00;97278.41;4956683;28;20207;-68
2022/11/13 10:10:27;;;;;;;15.07;13.57;;;;;;;4.69;100.00;97277.03;4993342;28;20211;-67
2022/11/13 10:12:56;;;;;;;16.57;14.33;;;;;;;4.50;100.00;97280.97;4975356;28;20177;-69
2022/11/13 10:15:23;;;;;;;17.13;14.47;;;;;;;4.66;100.00;97274.81;4973870;28;20275;-66
2022/11/13 10:17:49;;;;;;;18.20;16.00;;;;;;;4.88;100.00;97273.94;4973664;28;20185;-69
2022/11/13 10:20:21;;;;;;;18.73;15.07;;;;;;;4.85;100.00;97266.47;4986336;28;20184;-68
2022/11/13 10:23:05;;;;;;;16.87;15.17;;;;;;;5.12;100.00;97265.88;4992454;28;20181;-68
2022/11/13 10:25:36;;;;;;;19.03;17.43;;;;;;;5.38;100.00;97266.19;4988598;28;20177;-67
2022/11/13 10:28:13;;;;;;;19.23;17.47;;;;;;;5.01;100.00;97251.53;4987268;28;20370;-67
2022/11/13 10:30:39;;;;;;;16.33;14.73;;;;;;;4.96;100.00;97253.06;4963442;28;20219;-66
2022/11/13 10:33:13;;;;;;;19.57;17.77;;;;;;;5.22;100.00;97252.59;4977013;28;20212;-67
2022/11/13 10:35:40;;;;;;;15.40;13.80;;;;;;;5.77;100.00;97250.25;4976963;28;20216;-67
2022/11/13 10:38:28;;;;;;;16.17;14.77;;;;;;;5.88;100.00;97248.97;4988091;28;20184;-66
2022/11/13 10:41:07;;;;;;;15.20;13.77;;;;;;;5.95;100.00;97256.84;4979985;28;20208;-67
2022/11/13 10:43:33;;;;;;;14.47;13.00;;;;;;;5.94;100.00;97250.84;4977225;28;20173;-67
2022/11/13 10:46:04;;;;;;;14.73;13.33;;;;;;;6.12;100.00;97245.19;4986395;28;20614;-69
2022/11/13 10:48:35;;;;;;;13.00;11.87;;;;;;;6.45;100.00;97237.66;4985408;28;20193;-71
2022/11/13 10:51:24;;;;;;;13.77;12.47;;;;;;;6.42;100.00;97235.41;4979572;28;20180;-73
2022/11/13 10:53:50;;;;;;;12.37;11.23;;;;;;;6.38;100.00;97235.00;4986161;28;20592;-70
2022/11/13 10:56:25;;;;;;;16.93;15.30;;;;;;;6.49;100.00;97218.03;4984013;28;20307;-80
2022/11/13 10:59:09;;;;;;;16.57;14.73;;;;;;;6.59;100.00;97211.50;4979579;28;20188;-72
2022/11/13 11:01:34;;;;;;;14.10;12.87;;;;;;;6.57;100.00;97203.09;4977345;28;20197;-83
2022/11/13 11:04:03;;;;;;;14.57;13.27;;;;;;;6.75;100.00;97207.78;4978088;28;20212;-72
2022/11/13 11:06:36;;;;;;;13.20;12.00;;;;;;;6.69;100.00;97198.13;4977037;28;20188;-73
2022/11/13 11:09:28;;;;;;;15.87;14.67;;;;;;;6.91;100.00;97191.06;4991373;28;20608;-76
2022/11/13 11:12:20;;;;;;;12.17;11.17;;;;;;;6.93;100.00;97174.22;4976676;28;20192;-76
2022/11/13 11:14:59;;;;;;;12.53;11.43;;;;;;;7.02;100.00;97175.66;4966524;28;20181;-72
2022/11/13 11:18:03;;;;;;;12.53;11.43;;;;;;;6.87;100.00;97174.19;4964174;28;20226;-72
2022/11/13 11:20:41;;;;;;;14.00;12.70;;;;;;;6.59;100.00;97162.03;4979517;28;20195;-72
2022/11/13 11:23:34;;;;;;;17.97;16.37;;;;;;;6.71;100.00;97157.06;4958291;28;20192;-75
2022/11/13 11:26:07;;;;;;;14.27;13.07;;;;;;;6.69;100.00;97152.06;4958398;28;20216;-72